createdAt,value
2023-04-24T00:05:23.224Z,8.50
2023-04-24T00:15:28.863Z,8.60
2023-04-24T00:25:34.668Z,9.30
2023-04-24T00:35:38.569Z,8.80
2023-04-24T00:45:42.262Z,8.80
2023-04-24T00:55:46.554Z,8.70
2023-04-24T01:05:52.237Z,8.50
2023-04-24T01:16:09.199Z,9.10
2023-04-24T01:26:14.700Z,9.60
2023-04-24T01:36:21.546Z,9.60
2023-04-24T01:46:27.612Z,8.50
2023-04-24T01:56:31.642Z,9.10
2023-04-24T02:06:36.963Z,8.70
2023-04-24T02:16:41.787Z,9.20
2023-04-24T02:26:46.001Z,9.30
2023-04-24T02:36:50.939Z,10.30
2023-04-24T02:46:57.777Z,10.40
2023-04-24T02:57:02.417Z,9.90
2023-04-24T03:07:09.927Z,9.80
2023-04-24T03:17:14.521Z,10.10
2023-04-24T03:27:22.962Z,11.10
2023-04-24T03:37:46.863Z,11.10
2023-04-24T03:48:10.719Z,17.60
2023-04-24T03:58:15.816Z,22.70
2023-04-24T04:08:24.422Z,15.50
2023-04-24T04:18:28.720Z,12.90
2023-04-24T04:28:33.708Z,11.40
2023-04-24T04:38:39.880Z,11.50
2023-04-24T04:48:55.768Z,11.00
2023-04-24T04:59:02.191Z,11.50
2023-04-24T05:09:08.643Z,11.60
2023-04-24T05:19:21.039Z,11.30
2023-04-24T05:29:32.176Z,10.60
2023-04-24T05:39:38.003Z,9.90
2023-04-24T05:49:41.820Z,11.10
2023-04-24T05:59:46.650Z,11.80
2023-04-24T06:09:56.416Z,9.60
2023-04-24T06:20:00.730Z,9.20
2023-04-24T06:30:05.111Z,7.20
2023-04-24T06:40:12.996Z,7.00
2023-04-24T06:50:16.670Z,9.00
2023-04-24T07:00:20.748Z,7.10
2023-04-24T07:10:25.817Z,16.20
2023-04-24T07:20:29.597Z,10.40
2023-04-24T07:30:37.228Z,5.70
2023-04-24T07:40:40.921Z,5.60
2023-04-24T07:50:45.821Z,6.50
2023-04-24T08:00:51.242Z,8.40
2023-04-24T08:10:56.880Z,7.20
2023-04-24T08:21:02.677Z,7.80
2023-04-24T08:31:09.037Z,6.20
2023-04-24T08:41:15.179Z,5.80
2023-04-24T08:51:21.660Z,7.00
2023-04-24T09:01:27.330Z,5.50
2023-04-24T09:11:36.089Z,6.10
2023-04-24T09:21:39.969Z,4.30
2023-04-24T09:31:50.151Z,4.50
2023-04-24T09:42:01.982Z,5.70
2023-04-24T09:52:09.966Z,4.40
2023-04-24T10:02:22.733Z,3.90
2023-04-24T10:12:26.632Z,4.40
2023-04-24T10:22:34.498Z,4.70
2023-04-24T10:32:38.786Z,5.00
2023-04-24T10:42:47.233Z,5.00
2023-04-24T10:52:52.590Z,5.60
2023-04-24T11:03:00.715Z,5.60
2023-04-24T11:13:04.874Z,5.20
2023-04-24T11:23:09.875Z,5.40
2023-04-24T11:33:22.553Z,6.20
2023-04-24T11:43:27.393Z,5.70
2023-04-24T11:53:31.976Z,7.00
2023-04-24T12:03:39.259Z,7.10
2023-04-24T12:13:43.267Z,7.30
2023-04-24T12:23:48.998Z,8.10
2023-04-24T12:33:52.695Z,8.00
2023-04-24T12:43:57.773Z,8.60
2023-04-24T12:54:01.383Z,8.50
2023-04-24T13:04:05.058Z,8.50
2023-04-24T13:14:08.802Z,8.50
2023-04-24T13:24:54.327Z,8.30
2023-04-24T13:34:59.171Z,8.30
2023-04-24T13:45:13.845Z,8.60
2023-04-24T13:55:47.057Z,7.90
2023-04-24T14:06:51.487Z,7.60
2023-04-24T14:16:55.400Z,7.80
2023-04-24T14:27:01.421Z,5.60
2023-04-24T14:37:05.054Z,4.10
2023-04-24T14:47:12.731Z,4.80
2023-04-24T14:57:16.735Z,5.20
2023-04-24T15:07:22.299Z,4.60
2023-04-24T15:17:30.320Z,5.60
2023-04-24T15:27:47.522Z,7.60
2023-04-24T15:37:51.130Z,7.30
2023-04-24T15:47:54.925Z,7.50
2023-04-24T15:57:58.624Z,8.20
2023-04-24T16:08:05.460Z,8.80
2023-04-24T16:18:12.848Z,9.80
2023-04-24T16:28:17.349Z,9.50
2023-04-24T16:38:21.333Z,10.70
2023-04-24T16:48:27.043Z,9.50
2023-04-24T16:58:31.637Z,15.60
2023-04-24T17:08:37.336Z,24.70
2023-04-24T17:18:43.002Z,28.30
2023-04-24T17:28:46.801Z,22.60
2023-04-24T17:38:53.080Z,24.00
2023-04-24T17:48:57.316Z,21.00
2023-04-24T17:59:01.134Z,14.30
2023-04-24T18:09:04.671Z,27.50
2023-04-24T18:19:13.485Z,38.10
2023-04-24T18:29:20.284Z,20.20
2023-04-24T18:40:26.356Z,13.90
2023-04-24T18:50:32.128Z,11.40
2023-04-24T19:00:39.562Z,13.30
2023-04-24T19:10:44.869Z,21.10
2023-04-24T19:20:56.886Z,30.70
2023-04-24T19:31:04.100Z,31.10
2023-04-24T19:41:07.779Z,19.40
2023-04-24T19:51:13.306Z,18.20
2023-04-24T20:01:17.033Z,19.80
2023-04-24T20:11:20.768Z,16.30
2023-04-24T20:21:44.661Z,16.20
2023-04-24T20:31:48.782Z,15.20
2023-04-24T20:41:52.901Z,16.20
2023-04-24T20:51:59.479Z,16.60
2023-04-24T21:02:45.639Z,15.40
2023-04-24T21:12:49.560Z,15.80
2023-04-24T21:22:53.305Z,16.90
2023-04-24T21:32:59.742Z,15.60
2023-04-24T21:43:03.925Z,15.40
2023-04-24T21:53:07.590Z,14.30
2023-04-24T22:03:34.057Z,15.90
2023-04-24T22:13:38.189Z,20.50
2023-04-24T22:23:41.832Z,20.50
2023-04-24T22:33:47.618Z,22.80
2023-04-24T22:43:52.155Z,16.90
2023-04-24T22:53:58.374Z,14.50
2023-04-24T23:04:02.083Z,16.10
2023-04-24T23:14:07.387Z,19.50
2023-04-24T23:24:12.798Z,15.90
2023-04-24T23:34:39.623Z,17.20
2023-04-24T23:44:43.204Z,17.30
2023-04-24T23:54:48.205Z,21.80
